Time;durP1;ratioP1;P1;durP2;ratioP2;P2;SDS_P1;SDS_P2;PMS_P1;PMS_P2;Temp;Humidity;BMP_temperature;BMP_pressure;BME280_temperature;BME280_humidity;BME280_pressure;Samples;Min_cycle;Max_cycle;Signal;HPM_P1;HPM_P2
2023/05/13 00:01:03;;;;;;;2.87;2.67;;;19.60;55.10;;;;;;5068257;28;20513;-49
2023/05/13 00:03:29;;;;;;;2.60;2.40;;;19.60;54.70;;;;;;5061585;28;20214;-48
2023/05/13 00:05:55;;;;;;;2.97;2.70;;;19.60;54.70;;;;;;5064647;28;20692;-48
2023/05/13 00:08:21;;;;;;;2.90;2.57;;;19.60;54.80;;;;;;5070097;28;20614;-48
2023/05/13 00:10:46;;;;;;;3.67;2.70;;;19.60;54.70;;;;;;5070699;28;20528;-49
2023/05/13 00:13:12;;;;;;;2.93;2.70;;;19.60;54.60;;;;;;5068115;28;20195;-48
2023/05/13 00:15:39;;;;;;;2.40;2.20;;;19.50;54.40;;;;;;5071813;28;20250;-49
2023/05/13 00:18:04;;;;;;;2.80;2.60;;;19.50;54.50;;;;;;5070216;28;20652;-51
2023/05/13 00:20:30;;;;;;;2.50;2.30;;;19.40;54.60;;;;;;5071229;28;20543;-48
2023/05/13 00:22:56;;;;;;;3.00;2.80;;;19.50;54.80;;;;;;5069163;28;20196;-48
2023/05/13 00:25:21;;;;;;;4.17;3.10;;;19.50;54.80;;;;;;5072182;28;20648;-49
2023/05/13 00:27:47;;;;;;;2.80;2.60;;;19.40;54.50;;;;;;5069735;28;20200;-50
2023/05/13 00:30:12;;;;;;;2.80;2.60;;;19.40;54.40;;;;;;5056946;28;20196;-48
2023/05/13 00:32:38;;;;;;;2.60;2.40;;;19.40;54.60;;;;;;5066476;28;20253;-47
2023/05/13 00:35:04;;;;;;;2.90;2.70;;;19.40;54.90;;;;;;5063965;28;20219;-48
2023/05/13 00:37:30;;;;;;;3.13;2.80;;;19.40;55.00;;;;;;5062001;28;20310;-48
2023/05/13 00:39:55;;;;;;;3.53;2.80;;;19.40;54.90;;;;;;5059048;28;20577;-48
2023/05/13 00:42:21;;;;;;;3.40;2.90;;;19.40;54.90;;;;;;5057417;28;20192;-48
2023/05/13 00:44:46;;;;;;;3.03;2.73;;;19.30;55.00;;;;;;5060803;28;20223;-49
2023/05/13 00:47:12;;;;;;;2.73;2.53;;;19.30;55.30;;;;;;5066996;28;20254;-47
2023/05/13 00:49:38;;;;;;;3.00;2.80;;;19.30;55.20;;;;;;5058157;28;20188;-50
2023/05/13 00:52:04;;;;;;;2.83;2.50;;;19.30;55.30;;;;;;5058905;28;20195;-48
2023/05/13 00:54:30;;;;;;;3.37;3.07;;;19.40;55.20;;;;;;5060181;28;20228;-49
2023/05/13 00:56:56;;;;;;;3.00;2.30;;;19.40;54.90;;;;;;5062298;28;20767;-48
2023/05/13 00:59:24;;;;;;;2.30;2.17;;;19.40;54.80;;;;;;5063174;28;20200;-48
2023/05/13 01:01:52;;;;;;;3.13;2.90;;;19.30;54.10;;;;;;5054259;28;20474;-47
2023/05/13 01:04:18;;;;;;;3.20;2.53;;;19.20;53.90;;;;;;5062192;28;20945;-48
2023/05/13 01:07:07;;;;;;;3.33;2.47;;;19.10;54.10;;;;;;5068050;28;20437;-47
2023/05/13 01:10:02;;;;;;;2.73;2.53;;;19.00;54.80;;;;;;5063701;28;20908;-50
2023/05/13 01:12:33;;;;;;;2.70;2.40;;;19.10;55.00;;;;;;5061879;28;20503;-48
2023/05/13 01:15:12;;;;;;;2.57;2.37;;;19.10;55.40;;;;;;5070516;28;21336;-48
2023/05/13 01:17:41;;;;;;;3.23;2.60;;;19.20;54.40;;;;;;5067799;28;20503;-47
2023/05/13 01:20:07;;;;;;;2.80;2.60;;;19.20;53.90;;;;;;5056394;28;20494;-47
2023/05/13 01:22:33;;;;;;;2.87;2.67;;;19.20;53.60;;;;;;5063593;28;20769;-48
2023/05/13 01:24:59;;;;;;;2.60;2.40;;;19.20;53.50;;;;;;5058271;28;20450;-48
2023/05/13 01:27:24;;;;;;;2.30;2.20;;;19.20;53.30;;;;;;5059743;28;20195;-48
2023/05/13 01:29:50;;;;;;;5.37;2.73;;;19.00;53.40;;;;;;5051115;28;20196;-49
2023/05/13 01:32:17;;;;;;;4.43;2.77;;;18.90;53.60;;;;;;5062967;28;20562;-50
2023/05/13 01:34:44;;;;;;;3.40;3.20;;;18.70;53.80;;;;;;5061185;28;20200;-49
2023/05/13 01:37:10;;;;;;;2.87;2.57;;;18.60;54.20;;;;;;5061275;28;20477;-48
2023/05/13 01:39:39;;;;;;;2.77;2.40;;;18.60;54.80;;;;;;5057060;28;20561;-49
2023/05/13 01:42:05;;;;;;;6.53;2.70;;;18.50;54.70;;;;;;5062665;28;20278;-48
2023/05/13 01:44:30;;;;;;;3.07;2.80;;;18.50;55.30;;;;;;5055250;28;20534;-47
2023/05/13 01:46:56;;;;;;;3.20;3.00;;;18.60;55.00;;;;;;5067623;28;20192;-47
2023/05/13 01:49:22;;;;;;;3.17;2.87;;;18.50;55.20;;;;;;5060285;28;20218;-48
2023/05/13 01:51:47;;;;;;;3.70;2.43;;;18.60;55.60;;;;;;5058106;28;20274;-50
2023/05/13 01:54:13;;;;;;;2.83;2.63;;;18.60;55.10;;;;;;5059511;28;20243;-50
2023/05/13 01:56:38;;;;;;;2.80;2.60;;;18.70;54.90;;;;;;5063520;28;20963;-47
2023/05/13 01:59:04;;;;;;;2.90;2.70;;;18.80;54.70;;;;;;5067563;28;20221;-49
2023/05/13 02:01:29;;;;;;;2.70;2.50;;;18.80;54.60;;;;;;5059237;28;20675;-50
2023/05/13 02:04:00;;;;;;;4.67;2.50;;;18.70;55.30;;;;;;5066201;28;20246;-48
2023/05/13 02:06:27;;;;;;;3.03;2.83;;;18.70;55.50;;;;;;5063760;28;20196;-49
2023/05/13 02:08:52;;;;;;;2.63;2.40;;;18.80;55.40;;;;;;5064130;28;20449;-48
2023/05/13 02:11:18;;;;;;;2.20;2.10;;;18.80;55.30;;;;;;5061935;28;20434;-48
2023/05/13 02:13:43;;;;;;;3.20;2.57;;;18.90;54.60;;;;;;5066072;28;20856;-48
2023/05/13 02:16:14;;;;;;;2.83;2.63;;;18.90;54.60;;;;;;5064582;28;20257;-48
2023/05/13 02:18:39;;;;;;;2.87;2.67;;;18.90;54.90;;;;;;5062377;28;20651;-47
2023/05/13 02:21:05;;;;;;;2.27;2.17;;;18.90;54.60;;;;;;5059339;28;20486;-52
2023/05/13 02:23:31;;;;;;;3.00;2.80;;;18.90;54.40;;;;;;5057824;28;20202;-49
2023/05/13 02:25:56;;;;;;;2.90;2.70;;;18.90;54.20;;;;;;5059871;28;20203;-48
2023/05/13 02:28:22;;;;;;;2.70;2.50;;;18.90;54.40;;;;;;5056636;28;20200;-48
2023/05/13 02:30:47;;;;;;;3.17;2.70;;;19.00;54.30;;;;;;5057455;28;20228;-49
2023/05/13 02:33:13;;;;;;;2.83;2.63;;;18.90;53.60;;;;;;5056676;28;20203;-50
2023/05/13 02:35:39;;;;;;;2.63;2.53;;;18.90;55.00;;;;;;5063179;28;20202;-51
2023/05/13 02:38:04;;;;;;;2.70;2.50;;;18.90;55.10;;;;;;5060957;28;20568;-48
2023/05/13 02:40:30;;;;;;;3.17;2.93;;;18.90;54.20;;;;;;5063176;28;20232;-48
2023/05/13 02:42:56;;;;;;;2.67;2.47;;;18.90;54.80;;;;;;5063035;28;20230;-48
2023/05/13 02:45:21;;;;;;;3.37;3.07;;;19.00;54.70;;;;;;5066081;28;20253;-48
2023/05/13 02:47:47;;;;;;;2.90;2.63;;;19.00;54.40;;;;;;5064593;28;20192;-48
2023/05/13 02:50:12;;;;;;;3.30;2.67;;;18.90;54.50;;;;;;5060226;28;20220;-49
2023/05/13 02:52:38;;;;;;;2.77;2.57;;;18.90;54.60;;;;;;5056442;28;20204;-50
2023/05/13 02:55:08;;;;;;;2.77;2.57;;;18.90;54.70;;;;;;5051185;28;20704;-48
2023/05/13 02:57:34;;;;;;;3.50;2.43;;;19.00;55.30;;;;;;5060184;28;20537;-50
2023/05/13 03:00:00;;;;;;;4.13;2.60;;;19.10;54.70;;;;;;5061781;28;20535;-48
2023/05/13 03:02:26;;;;;;;3.07;2.87;;;19.10;54.40;;;;;;5064749;28;20805;-49
2023/05/13 03:04:53;;;;;;;3.70;3.03;;;19.10;54.10;;;;;;5065477;28;20196;-49
2023/05/13 03:07:19;;;;;;;3.07;2.87;;;19.20;54.40;;;;;;5055330;28;20442;-49
2023/05/13 03:09:45;;;;;;;6.63;3.00;;;19.20;54.50;;;;;;5067741;28;21042;-48
2023/05/13 03:12:10;;;;;;;2.90;2.70;;;19.30;54.10;;;;;;5064096;28;20195;-52
2023/05/13 03:14:37;;;;;;;2.97;2.43;;;19.30;53.60;;;;;;5066348;28;20257;-48
2023/05/13 03:17:02;;;;;;;3.40;3.10;;;19.20;53.60;;;;;;5069174;28;20194;-48
2023/05/13 03:19:28;;;;;;;2.57;2.37;;;19.20;53.80;;;;;;5068238;28;20434;-49
2023/05/13 03:21:54;;;;;;;2.53;2.33;;;19.20;53.70;;;;;;5067764;28;20478;-50
2023/05/13 03:24:20;;;;;;;2.77;2.57;;;19.20;53.60;;;;;;5066207;28;20224;-48
2023/05/13 03:26:45;;;;;;;2.90;2.70;;;19.30;54.00;;;;;;5071318;28;20863;-50
2023/05/13 03:29:11;;;;;;;3.73;2.47;;;19.30;54.00;;;;;;5067235;28;20202;-48
2023/05/13 03:31:37;;;;;;;2.60;2.40;;;19.30;54.00;;;;;;5068314;28;20199;-48
2023/05/13 03:34:02;;;;;;;2.50;2.30;;;19.40;54.10;;;;;;5063268;28;20271;-48
2023/05/13 03:36:28;;;;;;;2.90;2.70;;;19.40;53.90;;;;;;5071374;28;20188;-47
2023/05/13 03:38:53;;;;;;;3.07;2.80;;;19.50;53.20;;;;;;5060619;28;20215;-48
2023/05/13 03:41:19;;;;;;;3.27;2.93;;;19.50;52.60;;;;;;5062468;28;20233;-48
2023/05/13 03:43:45;;;;;;;2.90;2.70;;;19.50;52.80;;;;;;5066036;28;20203;-49
2023/05/13 03:46:11;;;;;;;3.53;3.23;;;19.50;52.70;;;;;;5069088;28;20516;-50
2023/05/13 03:48:36;;;;;;;5.80;2.60;;;19.50;52.90;;;;;;5068021;28;20320;-50
2023/05/13 03:51:02;;;;;;;3.93;2.77;;;19.50;52.40;;;;;;5069935;28;20625;-48
2023/05/13 03:53:28;;;;;;;3.17;2.97;;;19.50;52.00;;;;;;5069844;28;20199;-47
2023/05/13 03:55:53;;;;;;;2.90;2.70;;;19.50;51.90;;;;;;5079346;28;20674;-48
2023/05/13 03:58:21;;;;;;;3.83;3.10;;;19.50;52.20;;;;;;5068965;28;20227;-50
2023/05/13 04:00:47;;;;;;;2.83;2.63;;;19.50;52.50;;;;;;5070839;28;20679;-49
2023/05/13 04:03:16;;;;;;;2.93;2.73;;;19.50;52.30;;;;;;5065324;28;20496;-48
2023/05/13 04:05:45;;;;;;;3.53;3.23;;;19.50;52.40;;;;;;5076217;28;20200;-49
2023/05/13 04:08:10;;;;;;;3.60;3.40;;;19.50;52.20;;;;;;5062852;28;20454;-49
2023/05/13 04:10:36;;;;;;;2.53;2.33;;;19.40;52.10;;;;;;5067807;28;20514;-52
2023/05/13 04:13:01;;;;;;;3.83;2.70;;;19.40;52.70;;;;;;5070494;28;20643;-48
2023/05/13 04:15:27;;;;;;;3.10;2.80;;;19.40;52.70;;;;;;5072087;28;20257;-50
2023/05/13 04:17:53;;;;;;;5.73;2.50;;;19.40;52.40;;;;;;5058359;28;20250;-48
2023/05/13 04:20:18;;;;;;;3.73;3.30;;;19.40;52.40;;;;;;5061241;28;20253;-50
2023/05/13 04:22:44;;;;;;;3.90;3.20;;;19.40;52.20;;;;;;5065115;28;20188;-50
2023/05/13 04:25:10;;;;;;;4.17;3.20;;;19.30;52.10;;;;;;5046814;28;20197;-50
2023/05/13 04:27:35;;;;;;;8.33;3.10;;;19.10;52.10;;;;;;5068393;28;20202;-48
2023/05/13 04:30:01;;;;;;;2.87;2.63;;;19.00;52.50;;;;;;5058951;28;20211;-49
2023/05/13 04:32:27;;;;;;;3.33;3.00;;;18.80;52.80;;;;;;5062953;28;20200;-52
2023/05/13 04:34:54;;;;;;;3.20;3.00;;;18.60;53.20;;;;;;5066976;28;20438;-51
2023/05/13 04:37:20;;;;;;;6.07;3.07;;;18.50;53.80;;;;;;5064531;28;20199;-53
2023/05/13 04:39:46;;;;;;;3.07;2.87;;;18.40;54.20;;;;;;5062632;28;20469;-47
2023/05/13 04:42:13;;;;;;;4.07;2.83;;;18.30;54.50;;;;;;5065315;28;20197;-51
2023/05/13 04:44:38;;;;;;;2.70;2.50;;;18.20;54.80;;;;;;5060341;28;20442;-53
2023/05/13 04:47:04;;;;;;;5.70;3.10;;;18.10;55.20;;;;;;5055797;28;21171;-50
2023/05/13 04:49:30;;;;;;;3.07;2.87;;;18.00;55.40;;;;;;5068149;28;20203;-48
2023/05/13 04:51:56;;;;;;;3.70;3.40;;;17.90;55.50;;;;;;5062499;28;20679;-47
2023/05/13 04:54:22;;;;;;;3.53;3.23;;;17.90;55.60;;;;;;5060478;28;20227;-48
2023/05/13 04:56:47;;;;;;;3.30;3.00;;;17.80;55.50;;;;;;5062895;28;20986;-52
2023/05/13 04:59:13;;;;;;;3.20;2.90;;;17.80;55.50;;;;;;5058768;28;20563;-49
2023/05/13 05:01:39;;;;;;;3.57;3.27;;;17.80;55.30;;;;;;5057407;28;20746;-47
2023/05/13 05:04:05;;;;;;;3.57;3.27;;;17.80;55.10;;;;;;5060867;28;20274;-50
2023/05/13 05:06:31;;;;;;;4.93;3.10;;;17.70;55.10;;;;;;5061857;28;20200;-50
2023/05/13 05:08:57;;;;;;;3.07;2.87;;;17.70;55.20;;;;;;5068285;28;20306;-50
2023/05/13 05:11:22;;;;;;;3.93;3.40;;;17.70;55.20;;;;;;5063822;28;20522;-48
2023/05/13 05:13:48;;;;;;;3.33;3.03;;;17.70;55.30;;;;;;5066237;28;20184;-48
2023/05/13 05:16:14;;;;;;;3.33;3.03;;;17.70;55.30;;;;;;5066053;28;20203;-52
2023/05/13 05:18:42;;;;;;;3.40;3.10;;;17.70;55.40;;;;;;5068616;28;20192;-49
2023/05/13 05:21:10;;;;;;;3.33;3.07;;;17.70;55.50;;;;;;5069828;28;20239;-48
2023/05/13 05:23:36;;;;;;;3.13;2.90;;;17.70;55.70;;;;;;5063941;28;20441;-48
2023/05/13 05:26:02;;;;;;;2.57;2.37;;;17.70;55.60;;;;;;5068273;28;20430;-50
2023/05/13 05:28:28;;;;;;;4.03;3.00;;;17.70;55.60;;;;;;5068136;28;20203;-53
2023/05/13 05:30:54;;;;;;;3.33;2.97;;;17.70;55.70;;;;;;5051204;28;20443;-49
2023/05/13 05:33:20;;;;;;;4.67;3.17;;;17.80;55.90;;;;;;5064687;28;20449;-51
2023/05/13 05:35:45;;;;;;;3.40;3.10;;;17.90;55.70;;;;;;5063596;28;20721;-52
2023/05/13 05:38:11;;;;;;;7.63;3.50;;;18.00;55.50;;;;;;5064033;28;20652;-48
2023/05/13 05:40:41;;;;;;;3.20;3.00;;;18.00;55.30;;;;;;5064802;28;20232;-50
2023/05/13 05:43:08;;;;;;;5.83;2.93;;;18.10;55.10;;;;;;5058651;28;20866;-48
2023/05/13 05:45:34;;;;;;;3.20;2.90;;;18.20;55.00;;;;;;5063596;28;20964;-53
2023/05/13 05:48:00;;;;;;;3.57;3.27;;;18.10;54.60;;;;;;5059162;28;20476;-48
2023/05/13 05:50:27;;;;;;;3.40;3.10;;;18.20;54.70;;;;;;5058261;28;20434;-51
2023/05/13 05:52:53;;;;;;;3.03;2.83;;;18.20;54.70;;;;;;5065875;28;20192;-48
2023/05/13 05:55:19;;;;;;;3.00;2.70;;;18.20;54.60;;;;;;5060286;28;20458;-50
2023/05/13 05:57:44;;;;;;;3.63;3.33;;;18.20;54.60;;;;;;5064255;28;20446;-52
2023/05/13 06:00:11;;;;;;;4.70;3.33;;;18.20;54.60;;;;;;5059789;28;20710;-48
2023/05/13 06:02:36;;;;;;;2.80;2.60;;;18.30;54.80;;;;;;5064654;28;20188;-52
2023/05/13 06:05:02;;;;;;;3.57;3.07;;;18.30;53.90;;;;;;5066777;28;20491;-48
2023/05/13 06:07:28;;;;;;;6.20;3.57;;;18.30;53.70;;;;;;5070069;28;20188;-48
2023/05/13 06:09:54;;;;;;;3.03;2.83;;;18.30;53.40;;;;;;5068692;28;20198;-48
2023/05/13 06:12:19;;;;;;;3.47;2.50;;;18.30;53.40;;;;;;5060578;28;20842;-50
2023/05/13 06:14:45;;;;;;;3.47;3.17;;;18.30;53.60;;;;;;5070296;28;20438;-50
2023/05/13 06:17:13;;;;;;;3.30;2.93;;;18.40;53.80;;;;;;5066629;28;20192;-49
2023/05/13 06:19:41;;;;;;;3.47;3.17;;;18.40;53.40;;;;;;5069651;28;20188;-53
2023/05/13 06:22:07;;;;;;;3.13;2.87;;;18.50;53.40;;;;;;5063662;28;20484;-52
2023/05/13 06:24:33;;;;;;;4.00;3.70;;;18.60;53.30;;;;;;5065030;28;20512;-49
2023/05/13 06:26:58;;;;;;;3.27;2.97;;;18.60;52.70;;;;;;5065627;28;20458;-49
2023/05/13 06:29:24;;;;;;;3.30;3.10;;;18.60;52.80;;;;;;5065844;28;20674;-51
2023/05/13 06:31:49;;;;;;;4.53;3.03;;;18.60;52.80;;;;;;5066977;28;20579;-52
2023/05/13 06:34:15;;;;;;;3.80;3.43;;;18.70;52.90;;;;;;5061653;28;20211;-49
2023/05/13 06:36:42;;;;;;;3.33;3.13;;;18.70;52.60;;;;;;5060499;28;20195;-50
2023/05/13 06:39:10;;;;;;;4.40;3.23;;;18.70;52.40;;;;;;5060237;28;20563;-48
2023/05/13 06:41:35;;;;;;;3.87;3.60;;;18.80;52.50;;;;;;5056764;28;20575;-48
2023/05/13 06:44:01;;;;;;;3.57;3.27;;;18.80;52.80;;;;;;5062619;28;20907;-48
2023/05/13 06:46:26;;;;;;;4.00;2.93;;;18.80;53.00;;;;;;5061482;28;20592;-50
2023/05/13 06:48:54;;;;;;;3.37;3.17;;;18.90;53.30;;;;;;5059028;28;20192;-48
2023/05/13 06:51:19;;;;;;;3.50;3.20;;;18.90;53.60;;;;;;5062900;28;20200;-50
2023/05/13 06:53:46;;;;;;;3.87;3.13;;;19.00;53.70;;;;;;5074448;28;20453;-49
2023/05/13 06:56:11;;;;;;;3.50;3.20;;;19.00;53.60;;;;;;5066808;28;20285;-49
2023/05/13 06:58:37;;;;;;;3.30;3.10;;;18.90;53.40;;;;;;5056193;28;20481;-48
2023/05/13 07:01:02;;;;;;;6.80;3.10;;;18.90;53.50;;;;;;5062968;28;20216;-47
2023/05/13 07:03:28;;;;;;;3.97;3.67;;;18.90;53.40;;;;;;5061120;28;20195;-48
2023/05/13 07:05:54;;;;;;;10.03;4.03;;;18.90;52.90;;;;;;5067642;28;20248;-48
2023/05/13 07:08:20;;;;;;;3.57;3.27;;;18.70;53.40;;;;;;5064758;28;20663;-50
2023/05/13 07:10:45;;;;;;;3.60;3.30;;;18.70;53.90;;;;;;5068478;28;20442;-47
2023/05/13 07:13:11;;;;;;;7.80;3.93;;;18.60;53.20;;;;;;5067282;28;20295;-48
2023/05/13 07:15:37;;;;;;;5.43;3.23;;;18.60;52.90;;;;;;5069194;28;20196;-49
2023/05/13 07:18:02;;;;;;;4.30;3.90;;;18.60;53.10;;;;;;5069718;28;20278;-48
2023/05/13 07:20:29;;;;;;;3.80;3.50;;;18.70;53.60;;;;;;5069343;28;20238;-47
2023/05/13 07:22:54;;;;;;;3.70;3.40;;;18.70;53.60;;;;;;5069155;28;20224;-49
2023/05/13 07:25:20;;;;;;;3.67;3.37;;;18.70;53.90;;;;;;5066391;28;20438;-50
2023/05/13 07:27:46;;;;;;;3.63;3.33;;;18.80;53.80;;;;;;5067289;28;20674;-48
2023/05/13 07:30:12;;;;;;;4.20;3.90;;;18.80;53.90;;;;;;5052331;28;20204;-48
2023/05/13 07:32:39;;;;;;;5.20;4.00;;;18.90;53.80;;;;;;5064833;28;20511;-48
2023/05/13 07:35:05;;;;;;;5.70;3.20;;;18.90;53.90;;;;;;5067914;28;20925;-47
2023/05/13 07:37:31;;;;;;;3.63;3.33;;;18.90;54.00;;;;;;5062569;28;20438;-48
2023/05/13 07:39:56;;;;;;;3.17;2.97;;;19.00;54.10;;;;;;5062487;28;20478;-48
2023/05/13 07:42:23;;;;;;;3.80;3.43;;;19.00;53.80;;;;;;5068442;28;20200;-49
2023/05/13 07:44:48;;;;;;;3.73;3.43;;;19.10;53.70;;;;;;5066161;28;20188;-47
2023/05/13 07:47:14;;;;;;;4.23;3.20;;;19.00;54.00;;;;;;5062630;28;20448;-48
2023/05/13 07:49:39;;;;;;;4.93;3.87;;;18.90;53.90;;;;;;5068038;28;20207;-48
2023/05/13 07:52:05;;;;;;;4.43;3.70;;;18.90;54.10;;;;;;5065396;28;20204;-48
2023/05/13 07:54:30;;;;;;;3.33;3.10;;;18.80;54.10;;;;;;5069002;28;20235;-47
2023/05/13 07:56:56;;;;;;;3.77;3.50;;;18.70;55.00;;;;;;5059096;28;20282;-48
2023/05/13 07:59:22;;;;;;;4.30;3.80;;;18.70;54.90;;;;;;5067088;28;20227;-47
2023/05/13 08:01:47;;;;;;;4.30;3.80;;;18.90;55.00;;;;;;5068981;28;20289;-49
2023/05/13 08:04:13;;;;;;;4.33;3.67;;;18.90;54.50;;;;;;5062590;28;20231;-50
2023/05/13 08:06:38;;;;;;;4.27;3.90;;;18.90;54.60;;;;;;5068546;28;20195;-49
2023/05/13 08:09:04;;;;;;;4.60;4.30;;;18.90;54.70;;;;;;5065356;28;20719;-47
2023/05/13 08:11:29;;;;;;;4.10;3.70;;;19.00;54.70;;;;;;5070351;28;20188;-51
2023/05/13 08:13:56;;;;;;;3.50;3.23;;;19.00;54.70;;;;;;5067084;28;20501;-49
2023/05/13 08:16:22;;;;;;;4.30;3.90;;;19.00;54.60;;;;;;5070570;28;20188;-49
2023/05/13 08:18:47;;;;;;;4.37;4.07;;;19.00;54.70;;;;;;5067781;28;20439;-47
2023/05/13 08:21:13;;;;;;;3.83;3.43;;;19.10;54.70;;;;;;5070233;28;20269;-49
2023/05/13 08:23:39;;;;;;;4.90;4.23;;;19.10;54.50;;;;;;5073452;28;20205;-48
2023/05/13 08:26:04;;;;;;;3.87;3.57;;;19.10;54.30;;;;;;5072995;28;20191;-48
2023/05/13 08:28:30;;;;;;;5.23;4.60;;;19.00;55.30;;;;;;5072877;28;20221;-52
2023/05/13 08:31:01;;;;;;;3.70;3.40;;;19.10;55.20;;;;;;5070838;28;20200;-51
2023/05/13 08:33:30;;;;;;;4.50;3.43;;;19.20;55.00;;;;;;5073458;28;20196;-51
2023/05/13 08:35:56;;;;;;;6.50;3.70;;;19.20;54.60;;;;;;5073218;28;20434;-50
2023/05/13 08:38:22;;;;;;;3.50;3.20;;;19.30;54.40;;;;;;5054013;28;20450;-52
2023/05/13 08:40:48;;;;;;;3.20;2.90;;;19.40;54.30;;;;;;5063146;28;20859;-50
2023/05/13 08:43:15;;;;;;;3.70;3.40;;;19.30;53.40;;;;;;5079820;28;20187;-48
2023/05/13 08:45:44;;;;;;;4.00;3.70;;;19.40;53.50;;;;;;5066719;28;20210;-50
2023/05/13 08:48:12;;;;;;;3.23;3.03;;;19.30;54.20;;;;;;5071693;28;20929;-51
2023/05/13 08:50:38;;;;;;;5.20;2.87;;;19.30;54.20;;;;;;5065178;28;20431;-49
2023/05/13 08:53:05;;;;;;;5.77;3.23;;;19.40;53.80;;;;;;5063846;28;20446;-51
2023/05/13 08:55:31;;;;;;;4.30;3.90;;;19.30;53.70;;;;;;5068808;28;20224;-48
2023/05/13 08:57:57;;;;;;;4.30;2.80;;;19.30;53.20;;;;;;5065135;28;20434;-49
2023/05/13 09:00:23;;;;;;;4.17;3.10;;;19.30;53.60;;;;;;5067105;28;20248;-49
2023/05/13 09:02:49;;;;;;;3.23;2.93;;;19.30;53.20;;;;;;5064125;28;20197;-48
2023/05/13 09:05:16;;;;;;;3.23;2.80;;;19.10;53.00;;;;;;5065266;28;20735;-49
2023/05/13 09:07:41;;;;;;;3.10;2.80;;;19.10;53.80;;;;;;5060008;28;20438;-48
2023/05/13 09:10:08;;;;;;;3.50;3.20;;;19.20;53.90;;;;;;5060907;28;20938;-49
2023/05/13 09:12:50;;;;;;;9.93;3.03;;;19.00;53.10;;;;;;5066745;28;20656;-51
2023/05/13 09:15:26;;;;;;;3.70;3.00;;;19.10;53.40;;;;;;5057487;28;20450;-51
2023/05/13 09:18:03;;;;;;;3.30;3.00;;;19.10;54.00;;;;;;5066163;28;20583;-50
2023/05/13 09:20:29;;;;;;;3.53;3.23;;;19.30;53.60;;;;;;5069882;28;20489;-48
2023/05/13 09:23:16;;;;;;;3.90;3.50;;;19.40;53.40;;;;;;5066697;28;20451;-49
2023/05/13 09:25:42;;;;;;;6.00;3.40;;;19.40;53.20;;;;;;5063080;28;20418;-51
2023/05/13 09:28:12;;;;;;;3.37;3.07;;;19.10;52.70;;;;;;5057826;28;20517;-49
2023/05/13 09:30:40;;;;;;;2.73;2.53;;;19.10;53.20;;;;;;5063712;28;20791;-49
2023/05/13 09:33:06;;;;;;;2.57;2.37;;;19.20;53.40;;;;;;5064082;28;20450;-48
2023/05/13 09:35:32;;;;;;;3.40;3.10;;;19.20;53.00;;;;;;5066350;28;20507;-49
2023/05/13 09:37:58;;;;;;;2.77;2.57;;;19.30;52.80;;;;;;5062112;28;20191;-49
2023/05/13 09:40:23;;;;;;;3.13;2.83;;;19.30;52.60;;;;;;5065461;28;20489;-49
2023/05/13 09:42:49;;;;;;;2.83;2.63;;;19.50;52.70;;;;;;5066073;28;20193;-49
2023/05/13 09:45:16;;;;;;;2.73;2.53;;;19.50;51.90;;;;;;5066571;28;20199;-49
2023/05/13 09:47:42;;;;;;;2.40;2.23;;;19.40;51.70;;;;;;5070220;28;20667;-48
2023/05/13 09:50:10;;;;;;;3.27;2.97;;;19.20;52.20;;;;;;5068859;28;20956;-49
2023/05/13 09:52:37;;;;;;;2.90;2.60;;;19.20;52.30;;;;;;5068036;28;20517;-50
2023/05/13 09:55:07;;;;;;;3.17;2.93;;;19.20;52.40;;;;;;5054636;28;20484;-50
2023/05/13 09:57:33;;;;;;;3.83;2.90;;;19.20;52.90;;;;;;5067264;28;20520;-49
2023/05/13 10:00:00;;;;;;;3.07;2.77;;;19.20;52.80;;;;;;5069985;28;20494;-53
2023/05/13 10:02:27;;;;;;;3.10;2.50;;;19.40;53.00;;;;;;5050985;28;20483;-49
2023/05/13 10:04:57;;;;;;;3.03;2.73;;;19.20;53.00;;;;;;5068866;28;20451;-48
2023/05/13 10:07:24;;;;;;;2.20;2.03;;;19.10;53.00;;;;;;5070186;28;20945;-48
2023/05/13 10:09:56;;;;;;;3.27;2.97;;;19.10;53.00;;;;;;5067372;28;20457;-52
2023/05/13 10:12:24;;;;;;;2.77;2.57;;;19.30;52.60;;;;;;5071383;28;20426;-49
2023/05/13 10:14:51;;;;;;;3.60;2.20;;;19.30;52.40;;;;;;5071071;28;20951;-51
2023/05/13 10:17:22;;;;;;;2.70;2.50;;;19.60;52.50;;;;;;5070987;28;20521;-51
2023/05/13 10:19:52;;;;;;;4.03;2.50;;;19.80;53.50;;;;;;5069356;28;20430;-48
2023/05/13 10:22:28;;;;;;;2.83;2.63;;;19.80;52.40;;;;;;5068411;28;21000;-49
2023/05/13 10:24:58;;;;;;;3.00;2.80;;;19.80;52.10;;;;;;5069526;28;20453;-50
2023/05/13 10:27:31;;;;;;;2.10;2.00;;;19.80;52.10;;;;;;5048098;28;20449;-49
2023/05/13 10:29:59;;;;;;;2.60;2.40;;;19.80;52.50;;;;;;5067512;28;20503;-50
2023/05/13 10:32:27;;;;;;;2.97;2.77;;;19.80;52.00;;;;;;5063715;28;20448;-51
2023/05/13 10:35:04;;;;;;;2.30;2.20;;;19.80;52.90;;;;;;5064104;28;20458;-50
2023/05/13 10:37:33;;;;;;;2.77;2.57;;;19.70;52.40;;;;;;5043605;28;20445;-49
2023/05/13 10:40:23;;;;;;;2.77;2.53;;;19.80;52.00;;;;;;5060199;28;20481;-49
2023/05/13 10:43:02;;;;;;;2.50;2.30;;;19.80;51.80;;;;;;5056535;28;20475;-49
2023/05/13 10:45:32;;;;;;;2.70;2.50;;;19.70;51.50;;;;;;5059582;28;20474;-50
2023/05/13 10:48:05;;;;;;;3.87;3.00;;;19.80;52.00;;;;;;5057324;28;20434;-50
2023/05/13 10:50:34;;;;;;;2.57;2.37;;;19.80;51.40;;;;;;5062992;28;20473;-48
2023/05/13 10:53:02;;;;;;;3.03;2.50;;;19.90;51.50;;;;;;5044017;28;21223;-50
2023/05/13 10:55:28;;;;;;;3.07;2.83;;;19.90;51.20;;;;;;5062739;28;21064;-49
2023/05/13 10:58:10;;;;;;;2.60;2.40;;;20.10;51.20;;;;;;5059589;28;20438;-49
2023/05/13 11:00:38;;;;;;;3.20;3.00;;;20.20;51.80;;;;;;5066309;28;20297;-48
2023/05/13 11:03:12;;;;;;;2.70;2.50;;;20.30;51.10;;;;;;5058612;28;20450;-49
2023/05/13 11:05:40;;;;;;;2.77;2.57;;;20.30;50.80;;;;;;5060709;28;20858;-51
2023/05/13 11:08:06;;;;;;;2.70;2.50;;;20.40;50.70;;;;;;5054710;28;20962;-49
2023/05/13 11:10:31;;;;;;;3.40;2.20;;;20.30;50.90;;;;;;5062998;28;20461;-47
2023/05/13 11:13:15;;;;;;;3.43;2.77;;;20.40;51.40;;;;;;5055685;28;20195;-48
2023/05/13 11:15:49;;;;;;;2.53;2.33;;;20.50;51.50;;;;;;5059147;28;20246;-49
2023/05/13 11:18:15;;;;;;;2.77;2.50;;;20.30;50.90;;;;;;5060073;28;21202;-49
2023/05/13 11:20:46;;;;;;;2.70;2.50;;;20.30;51.00;;;;;;5060713;28;20532;-48
2023/05/13 11:23:21;;;;;;;3.80;3.40;;;20.20;51.50;;;;;;5062492;28;20200;-49
2023/05/13 11:26:15;;;;;;;2.90;2.70;;;20.20;51.90;;;;;;5066425;28;20449;-48
2023/05/13 11:29:04;;;;;;;4.77;3.33;;;20.30;52.10;;;;;;5064966;28;20447;-48
2023/05/13 11:31:55;;;;;;;5.80;3.73;;;20.20;52.80;;;;;;5058591;28;20448;-49
2023/05/13 11:34:21;;;;;;;4.20;3.90;;;20.30;53.40;;;;;;5057094;28;20449;-48
2023/05/13 11:37:16;;;;;;;11.80;6.00;;;20.30;53.50;;;;;;5069093;28;20434;-48
2023/05/13 11:39:42;;;;;;;3.80;3.50;;;20.60;53.90;;;;;;5042089;28;20450;-50
2023/05/13 11:42:09;;;;;;;9.77;3.90;;;20.70;52.60;;;;;;5065792;28;20446;-50
2023/05/13 11:44:36;;;;;;;3.77;3.47;;;20.80;52.60;;;;;;5066138;28;20223;-48
2023/05/13 11:47:07;;;;;;;4.33;3.40;;;20.90;52.10;;;;;;5073002;28;20438;-49
2023/05/13 11:49:37;;;;;;;10.77;4.37;;;20.90;50.90;;;;;;5065071;28;20429;-48
2023/05/13 11:52:04;;;;;;;3.87;3.57;;;20.70;51.30;;;;;;5067831;28;20914;-48
2023/05/13 11:54:30;;;;;;;5.83;3.77;;;20.70;51.50;;;;;;5062053;28;20836;-51
2023/05/13 11:56:56;;;;;;;3.60;3.40;;;20.70;52.10;;;;;;5070248;28;20445;-53
2023/05/13 11:59:22;;;;;;;4.30;3.90;;;20.80;52.10;;;;;;5072228;28;20192;-49
2023/05/13 12:02:01;;;;;;;3.70;3.40;;;20.80;51.80;;;;;;5073974;28;20246;-48
2023/05/13 12:04:28;;;;;;;4.70;4.20;;;20.90;51.90;;;;;;5067604;28;20964;-49
2023/05/13 12:06:54;;;;;;;3.80;3.50;;;20.90;51.10;;;;;;5068796;28;20491;-51
2023/05/13 12:09:22;;;;;;;3.57;3.27;;;20.90;50.70;;;;;;5072838;28;20434;-49
2023/05/13 12:11:51;;;;;;;5.37;3.10;;;20.90;51.00;;;;;;5060441;28;21166;-49
2023/05/13 12:14:21;;;;;;;3.90;3.60;;;20.90;51.10;;;;;;5072118;28;20961;-50
2023/05/13 12:16:47;;;;;;;3.60;3.30;;;21.00;52.00;;;;;;5060973;28;20432;-49
2023/05/13 12:19:13;;;;;;;5.10;3.50;;;21.00;51.30;;;;;;5072726;28;20434;-48
2023/05/13 12:21:39;;;;;;;5.13;4.43;;;20.90;51.00;;;;;;5063369;28;20493;-49
2023/05/13 12:24:20;;;;;;;4.23;3.63;;;20.90;52.80;;;;;;5055918;28;20192;-50
2023/05/13 12:26:46;;;;;;;5.37;3.63;;;21.00;53.30;;;;;;5066368;28;20249;-50
2023/05/13 12:29:13;;;;;;;3.43;3.17;;;21.30;52.30;;;;;;5072551;28;20467;-48
2023/05/13 12:31:41;;;;;;;3.93;2.73;;;21.50;52.40;;;;;;5072493;28;20541;-47
2023/05/13 12:34:06;;;;;;;3.70;3.33;;;21.70;52.30;;;;;;5066652;28;20534;-48
2023/05/13 12:36:36;;;;;;;3.80;3.37;;;21.90;51.70;;;;;;5060057;28;20537;-51
2023/05/13 12:39:07;;;;;;;3.27;3.07;;;22.00;50.50;;;;;;5066066;28;20184;-51
2023/05/13 12:41:39;;;;;;;3.97;3.67;;;22.20;49.90;;;;;;5064223;28;20910;-51
2023/05/13 12:44:08;;;;;;;3.50;3.20;;;22.30;50.30;;;;;;5067869;28;20446;-49
2023/05/13 12:46:34;;;;;;;4.40;3.20;;;22.10;51.10;;;;;;5072754;28;20534;-52